createdAt,value
2023-01-10T00:01:55.839Z,4.64
2023-01-10T00:04:57.570Z,4.65
2023-01-10T00:07:59.427Z,4.66
2023-01-10T00:11:01.168Z,4.67
2023-01-10T00:14:02.739Z,4.68
2023-01-10T00:17:04.842Z,4.68
2023-01-10T00:20:06.692Z,4.70
2023-01-10T00:23:08.399Z,4.72
2023-01-10T00:26:10.321Z,4.72
2023-01-10T00:29:11.868Z,4.72
2023-01-10T00:32:13.535Z,4.72
2023-01-10T00:35:15.030Z,4.72
2023-01-10T00:38:16.771Z,4.72
2023-01-10T00:41:18.556Z,4.71
2023-01-10T00:44:20.196Z,4.72
2023-01-10T00:47:21.756Z,4.71
2023-01-10T00:50:23.467Z,4.70
2023-01-10T00:53:25.213Z,4.69
2023-01-10T00:56:26.634Z,4.68
2023-01-10T00:59:28.261Z,4.66
2023-01-10T01:02:30.145Z,4.62
2023-01-10T01:05:31.934Z,4.59
2023-01-10T01:08:33.862Z,4.56
2023-01-10T01:11:35.593Z,4.54
2023-01-10T01:14:37.517Z,4.52
2023-01-10T01:17:39.793Z,4.48
2023-01-10T01:20:41.791Z,4.49
2023-01-10T01:23:44.289Z,4.46
2023-01-10T01:26:45.808Z,4.45
2023-01-10T01:29:47.578Z,4.43
2023-01-10T01:32:49.238Z,4.41
2023-01-10T01:35:50.977Z,4.40
2023-01-10T01:38:52.534Z,4.38
2023-01-10T01:41:54.173Z,4.37
2023-01-10T01:45:08.276Z,4.37
2023-01-10T01:48:19.784Z,4.36
2023-01-10T01:51:24.920Z,4.35
2023-01-10T01:54:27.780Z,4.33
2023-01-10T01:57:30.356Z,4.32
2023-01-10T02:00:32.007Z,4.32
2023-01-10T02:03:37.724Z,4.30
2023-01-10T02:06:40.078Z,4.29
2023-01-10T02:09:49.688Z,4.29
2023-01-10T02:12:53.826Z,4.28
2023-01-10T02:15:55.539Z,4.26
2023-01-10T02:18:57.116Z,4.24
2023-01-10T02:21:58.854Z,4.23
2023-01-10T02:25:20.378Z,4.21
2023-01-10T02:28:43.783Z,4.19
2023-01-10T02:32:50.374Z,4.17
2023-01-10T02:36:20.508Z,4.15
2023-01-10T02:39:34.580Z,4.15
2023-01-10T02:42:55.626Z,4.15
2023-01-10T02:46:04.868Z,4.14
2023-01-10T02:49:06.611Z,4.13
2023-01-10T02:52:08.185Z,4.13
2023-01-10T02:55:09.962Z,4.11
2023-01-10T02:58:30.540Z,4.10
2023-01-10T03:01:44.703Z,4.09
2023-01-10T03:05:11.691Z,4.08
2023-01-10T03:08:22.287Z,4.06
2023-01-10T03:11:26.961Z,4.04
2023-01-10T03:14:29.157Z,4.03
2023-01-10T03:17:31.359Z,4.03
2023-01-10T03:20:34.884Z,4.02
2023-01-10T03:23:36.750Z,4.01
2023-01-10T03:27:07.533Z,4.01
2023-01-10T03:30:12.840Z,4.02
2023-01-10T03:33:17.859Z,4.02
2023-01-10T03:36:22.479Z,4.02
2023-01-10T03:39:41.594Z,4.01
2023-01-10T03:42:50.156Z,4.02
2023-01-10T03:45:59.314Z,4.01
2023-01-10T03:49:04.223Z,4.01
2023-01-10T03:52:07.707Z,3.99
2023-01-10T03:55:15.457Z,3.99
2023-01-10T03:58:17.382Z,3.99
2023-01-10T04:01:19.186Z,3.98
2023-01-10T04:04:21.005Z,3.97
2023-01-10T04:07:22.894Z,3.97
2023-01-10T04:10:25.290Z,3.95
2023-01-10T04:13:27.089Z,3.96
2023-01-10T04:16:31.796Z,3.95
2023-01-10T04:19:33.547Z,3.93
2023-01-10T04:22:35.249Z,3.92
2023-01-10T04:25:36.794Z,3.92
2023-01-10T04:28:38.433Z,3.91
2023-01-10T04:31:40.181Z,3.90
2023-01-10T04:34:41.824Z,3.89
2023-01-10T04:37:43.524Z,3.88
2023-01-10T04:40:45.137Z,3.87
2023-01-10T04:43:46.774Z,3.87
2023-01-10T04:46:48.339Z,3.88
2023-01-10T04:49:50.102Z,3.87
2023-01-10T04:52:51.727Z,3.87
2023-01-10T04:55:53.435Z,3.85
2023-01-10T04:58:54.961Z,3.84
2023-01-10T05:01:57.560Z,3.83
2023-01-10T05:04:59.417Z,3.78
2023-01-10T05:08:01.099Z,3.63
2023-01-10T05:11:02.717Z,3.41
2023-01-10T05:14:04.290Z,3.31
2023-01-10T05:17:05.917Z,3.29
2023-01-10T05:20:08.729Z,3.26
2023-01-10T05:23:10.347Z,3.23
2023-01-10T05:26:15.980Z,3.16
2023-01-10T05:29:17.630Z,3.17
2023-01-10T05:32:19.240Z,3.18
2023-01-10T05:35:20.937Z,3.15
2023-01-10T05:38:22.584Z,3.16
2023-01-10T05:41:24.193Z,3.13
2023-01-10T05:44:25.761Z,3.13
2023-01-10T05:47:27.256Z,3.16
2023-01-10T05:50:28.951Z,3.16
2023-01-10T05:53:30.656Z,3.15
2023-01-10T05:56:32.144Z,3.13
2023-01-10T05:59:33.726Z,3.10
2023-01-10T06:02:35.416Z,3.05
2023-01-10T06:05:36.962Z,2.99
2023-01-10T06:08:38.694Z,2.96
2023-01-10T06:11:40.243Z,2.93
2023-01-10T06:14:41.885Z,2.90
2023-01-10T06:17:43.574Z,2.88
2023-01-10T06:20:45.094Z,2.90
2023-01-10T06:23:46.745Z,2.89
2023-01-10T06:26:48.253Z,2.90
2023-01-10T06:29:49.828Z,2.91
2023-01-10T06:32:51.434Z,2.91
2023-01-10T06:35:53.173Z,2.99
2023-01-10T06:38:54.643Z,3.05
2023-01-10T06:41:56.348Z,3.08
2023-01-10T06:44:57.884Z,3.11
2023-01-10T06:47:59.452Z,3.12
2023-01-10T06:51:01.012Z,3.13
2023-01-10T06:54:02.627Z,3.14
2023-01-10T06:57:04.430Z,3.14
2023-01-10T07:00:06.745Z,3.13
2023-01-10T07:03:09.510Z,3.10
2023-01-10T07:06:11.540Z,3.08
2023-01-10T07:09:13.085Z,3.06
2023-01-10T07:12:14.659Z,3.03
2023-01-10T07:15:16.270Z,2.99
2023-01-10T07:18:17.809Z,2.96
2023-01-10T07:21:19.438Z,2.94
2023-01-10T07:24:21.044Z,2.91
2023-01-10T07:27:22.729Z,2.87
2023-01-10T07:30:25.564Z,2.81
2023-01-10T07:33:28.044Z,2.78
2023-01-10T07:36:29.769Z,2.74
2023-01-10T07:39:31.376Z,2.73
2023-01-10T07:42:32.941Z,2.70
2023-01-10T07:45:34.551Z,2.68
2023-01-10T07:48:36.441Z,2.67
2023-01-10T07:51:38.093Z,2.66
2023-01-10T07:54:39.692Z,2.64
2023-01-10T07:57:41.309Z,2.63
2023-01-10T08:00:43.007Z,2.63
2023-01-10T08:03:44.695Z,2.64
2023-01-10T08:06:46.359Z,2.65
2023-01-10T08:09:47.947Z,2.66
2023-01-10T08:12:49.939Z,2.66
2023-01-10T08:15:51.607Z,2.67
2023-01-10T08:18:53.201Z,2.69
2023-01-10T08:21:55.134Z,2.71
2023-01-10T08:24:56.657Z,2.73
2023-01-10T08:27:58.246Z,2.76
2023-01-10T08:31:05.789Z,2.78
2023-01-10T08:34:07.486Z,2.80
2023-01-10T08:37:11.569Z,2.82
2023-01-10T08:40:13.571Z,2.85
2023-01-10T08:43:15.215Z,2.86
2023-01-10T08:46:16.992Z,2.87
2023-01-10T08:49:18.652Z,2.88
2023-01-10T08:52:20.436Z,2.89
2023-01-10T08:55:22.037Z,2.91
2023-01-10T08:58:23.726Z,2.91
2023-01-10T09:01:25.504Z,2.92
2023-01-10T09:04:27.870Z,2.93
2023-01-10T09:07:29.571Z,2.93
2023-01-10T09:10:31.227Z,2.95
2023-01-10T09:13:33.068Z,2.95
2023-01-10T09:16:34.668Z,2.97
2023-01-10T09:19:36.318Z,2.98
2023-01-10T09:22:38.747Z,3.00
2023-01-10T09:25:40.407Z,3.00
2023-01-10T09:28:42.144Z,3.01
2023-01-10T09:31:43.948Z,3.00
2023-01-10T09:34:45.724Z,3.00
2023-01-10T09:37:47.285Z,3.02
2023-01-10T09:41:38.142Z,3.03
2023-01-10T09:44:42.779Z,3.02
2023-01-10T09:47:52.611Z,3.03
2023-01-10T09:51:00.539Z,3.03
2023-01-10T09:54:12.116Z,3.00
2023-01-10T09:57:17.820Z,2.98
2023-01-10T10:00:22.942Z,2.98
2023-01-10T10:03:56.335Z,2.98
2023-01-10T10:06:58.142Z,3.00
2023-01-10T10:09:59.683Z,3.02
2023-01-10T10:13:30.116Z,3.04
2023-01-10T10:16:37.484Z,3.05
2023-01-10T10:19:52.341Z,3.09
2023-01-10T10:22:57.062Z,3.13
2023-01-10T10:26:07.453Z,3.15
2023-01-10T10:29:21.451Z,3.20
2023-01-10T10:32:31.652Z,3.23
2023-01-10T10:35:37.801Z,3.27
2023-01-10T10:38:42.594Z,3.30
2023-01-10T10:41:46.641Z,3.32
2023-01-10T10:45:10.153Z,3.34
2023-01-10T10:48:24.467Z,3.34
2023-01-10T10:51:44.568Z,3.35
2023-01-10T10:54:47.790Z,3.35
2023-01-10T10:57:59.776Z,3.37
2023-01-10T11:01:02.101Z,3.38
2023-01-10T11:04:10.761Z,3.39
2023-01-10T11:07:16.549Z,3.40
2023-01-10T11:10:23.511Z,3.42
2023-01-10T11:13:34.555Z,3.43
2023-01-10T11:16:38.512Z,3.43
2023-01-10T11:19:40.082Z,3.44
2023-01-10T11:22:47.921Z,3.44
2023-01-10T11:25:50.019Z,3.44
2023-01-10T11:28:55.872Z,3.44
2023-01-10T11:31:58.055Z,3.44
2023-01-10T11:35:02.733Z,3.44
2023-01-10T11:38:20.900Z,3.44
2023-01-10T11:41:26.464Z,3.43
2023-01-10T11:44:29.904Z,3.40
2023-01-10T11:47:38.050Z,3.36
2023-01-10T11:50:43.259Z,3.31
2023-01-10T11:53:45.505Z,3.26
2023-01-10T11:57:46.858Z,3.27
2023-01-10T12:00:49.603Z,3.23
2023-01-10T12:03:51.583Z,3.21
2023-01-10T12:06:53.895Z,3.19
2023-01-10T12:09:55.528Z,3.17
2023-01-10T12:13:00.222Z,3.15
2023-01-10T12:16:38.911Z,3.14
2023-01-10T12:19:40.423Z,3.14
2023-01-10T12:22:46.044Z,3.14
2023-01-10T12:25:48.419Z,3.13
2023-01-10T12:28:53.978Z,3.13
2023-01-10T12:31:57.299Z,3.12
2023-01-10T12:35:06.312Z,3.14
2023-01-10T12:38:17.125Z,3.15
2023-01-10T12:41:30.407Z,3.17
2023-01-10T12:44:42.325Z,3.19
2023-01-10T12:47:46.762Z,3.20
2023-01-10T12:51:04.252Z,3.20
2023-01-10T12:54:15.079Z,3.20
2023-01-10T12:57:36.709Z,3.19
2023-01-10T13:00:48.316Z,3.19
2023-01-10T13:03:55.908Z,3.19
2023-01-10T13:06:57.895Z,3.18
2023-01-10T13:10:02.426Z,3.19
2023-01-10T13:13:33.466Z,3.17
2023-01-10T13:16:35.098Z,3.16
2023-01-10T13:19:36.715Z,3.14
2023-01-10T13:22:38.359Z,3.12
2023-01-10T13:25:39.901Z,3.11
2023-01-10T13:28:53.468Z,3.11
2023-01-10T13:31:57.733Z,3.12
2023-01-10T13:35:17.133Z,3.13
2023-01-10T13:38:46.317Z,3.12
2023-01-10T13:41:57.045Z,3.12
2023-01-10T13:45:01.632Z,3.11
2023-01-10T13:48:03.711Z,3.10
2023-01-10T13:51:07.849Z,3.10
2023-01-10T13:54:18.724Z,3.10
2023-01-10T13:57:49.360Z,3.10
2023-01-10T14:00:52.576Z,3.11
2023-01-10T14:03:59.047Z,3.12
2023-01-10T14:07:12.933Z,3.14
2023-01-10T14:10:23.951Z,3.16
2023-01-10T14:13:25.482Z,3.18
2023-01-10T14:19:43.952Z,3.18
2023-01-10T14:23:07.069Z,3.18
2023-01-10T14:26:18.902Z,3.16
2023-01-10T14:29:20.558Z,3.17
2023-01-10T14:32:38.672Z,3.16
2023-01-10T14:35:44.224Z,3.15
2023-01-10T14:38:47.077Z,3.14
2023-01-10T14:41:53.415Z,3.13
2023-01-10T14:45:09.145Z,3.13
2023-01-10T14:48:41.016Z,3.12
2023-01-10T14:51:42.629Z,3.11
2023-01-10T14:54:44.182Z,3.09
2023-01-10T14:57:54.865Z,3.07
2023-01-10T15:00:56.747Z,3.05
2023-01-10T15:03:58.456Z,3.05
2023-01-10T15:07:01.237Z,3.03
2023-01-10T15:10:18.107Z,3.02
2023-01-10T15:13:22.506Z,3.01
2023-01-10T15:16:24.689Z,3.00
2023-01-10T15:19:27.363Z,3.00
2023-01-10T15:22:35.199Z,3.00
2023-01-10T15:25:38.610Z,3.00
2023-01-10T15:28:40.567Z,3.00
2023-01-10T15:31:42.925Z,2.99
2023-01-10T15:34:49.306Z,3.00
2023-01-10T15:37:57.516Z,3.00
2023-01-10T15:41:01.584Z,3.00
2023-01-10T15:44:41.002Z,3.00
2023-01-10T15:47:48.641Z,2.99
2023-01-10T15:51:11.574Z,2.98
2023-01-10T15:54:19.143Z,2.97
2023-01-10T15:57:30.738Z,2.97
2023-01-10T16:00:33.365Z,2.97
2023-01-10T16:03:39.765Z,2.96
2023-01-10T16:06:41.617Z,2.96
2023-01-10T16:09:43.039Z,2.95
2023-01-10T16:12:44.595Z,2.94
2023-01-10T16:15:46.215Z,2.93
2023-01-10T16:18:47.876Z,2.92
2023-01-10T16:21:54.673Z,2.91
2023-01-10T16:24:56.208Z,2.91
2023-01-10T16:27:58.346Z,2.90
2023-01-10T16:30:59.946Z,2.90
2023-01-10T16:34:01.503Z,2.88
2023-01-10T16:37:03.812Z,2.83
2023-01-10T16:40:21.841Z,2.73
2023-01-10T16:43:23.436Z,2.65
2023-01-10T16:46:25.034Z,2.62
2023-01-10T16:49:26.769Z,2.58
2023-01-10T16:52:28.219Z,2.57
2023-01-10T16:55:38.736Z,2.60
2023-01-10T16:58:40.406Z,2.60
2023-01-10T17:01:43.234Z,2.61
2023-01-10T17:04:45.103Z,2.61
2023-01-10T17:07:46.749Z,2.61
2023-01-10T17:10:50.574Z,2.62
2023-01-10T17:13:52.321Z,2.62
2023-01-10T17:16:53.885Z,2.64
2023-01-10T17:19:55.528Z,2.66
2023-01-10T17:22:57.538Z,2.67
2023-01-10T17:26:01.281Z,2.65
2023-01-10T17:29:02.884Z,2.66
2023-01-10T17:32:04.721Z,2.67
2023-01-10T17:35:07.259Z,2.65
2023-01-10T17:38:14.475Z,2.66
2023-01-10T17:41:16.120Z,2.68
2023-01-10T17:44:17.696Z,2.69
2023-01-10T17:47:19.393Z,2.69
2023-01-10T17:50:21.056Z,2.70
2023-01-10T17:53:22.870Z,2.71
2023-01-10T17:56:24.447Z,2.70
2023-01-10T17:59:26.083Z,2.71
2023-01-10T18:02:28.078Z,2.73
2023-01-10T18:05:29.917Z,2.75
2023-01-10T18:08:31.647Z,2.76
2023-01-10T18:11:33.538Z,2.79
2023-01-10T18:14:35.239Z,2.82
2023-01-10T18:17:36.922Z,2.83
2023-01-10T18:20:44.798Z,2.85
2023-01-10T18:23:46.415Z,2.89
2023-01-10T18:26:48.217Z,2.91
2023-01-10T18:29:50.367Z,2.92
2023-01-10T18:32:53.545Z,2.91
2023-01-10T18:35:55.145Z,2.91
2023-01-10T18:38:57.461Z,2.89
2023-01-10T18:41:59.076Z,2.86
2023-01-10T18:45:00.618Z,2.87
2023-01-10T18:48:02.174Z,2.87
2023-01-10T18:51:04.850Z,2.85
2023-01-10T18:54:06.405Z,2.86
2023-01-10T18:57:08.109Z,2.87
2023-01-10T19:00:10.684Z,2.89
2023-01-10T19:03:12.319Z,2.91
2023-01-10T19:06:15.578Z,2.92
2023-01-10T19:09:17.331Z,2.91
2023-01-10T19:12:19.092Z,2.89
2023-01-10T19:15:20.603Z,2.92
2023-01-10T19:18:22.186Z,2.93
2023-01-10T19:21:24.158Z,2.92
2023-01-10T19:24:29.401Z,2.94
2023-01-10T19:27:31.007Z,2.94
2023-01-10T19:30:32.597Z,2.93
2023-01-10T19:33:34.907Z,2.91
2023-01-10T19:36:36.641Z,2.93
2023-01-10T19:39:38.307Z,2.94
2023-01-10T19:42:40.063Z,2.94
2023-01-10T19:45:41.864Z,2.95
2023-01-10T19:48:43.588Z,2.96
2023-01-10T19:51:46.038Z,2.96
2023-01-10T19:54:47.867Z,2.98
2023-01-10T19:57:49.539Z,3.00
2023-01-10T20:00:51.016Z,2.99
2023-01-10T20:03:53.946Z,3.00
2023-01-10T20:06:55.596Z,3.02
2023-01-10T20:09:57.315Z,3.01
2023-01-10T20:12:58.864Z,3.00
2023-01-10T20:16:00.515Z,3.03
2023-01-10T20:19:02.228Z,3.02
2023-01-10T20:22:04.561Z,3.03
2023-01-10T20:25:09.323Z,3.05
2023-01-10T20:28:11.117Z,3.05
2023-01-10T20:31:13.754Z,3.05
2023-01-10T20:34:15.564Z,3.07
2023-01-10T20:37:17.558Z,3.07
2023-01-10T20:40:19.216Z,3.06
2023-01-10T20:43:20.787Z,3.06
2023-01-10T20:46:28.143Z,3.06
2023-01-10T20:49:32.676Z,3.05
2023-01-10T20:52:34.279Z,3.07
2023-01-10T20:55:36.305Z,3.10
2023-01-10T20:58:38.018Z,3.11
2023-01-10T21:01:39.778Z,3.13
2023-01-10T21:04:41.585Z,3.15
2023-01-10T21:07:43.473Z,3.15
2023-01-10T21:10:46.538Z,3.14
2023-01-10T21:13:48.294Z,3.15
2023-01-10T21:16:49.891Z,3.14
2023-01-10T21:19:51.520Z,3.13
2023-01-10T21:22:54.143Z,3.15
2023-01-10T21:26:07.603Z,3.14
2023-01-10T21:29:10.472Z,3.11
2023-01-10T21:32:13.251Z,3.12
2023-01-10T21:35:14.817Z,3.20
2023-01-10T21:38:16.498Z,3.22
2023-01-10T21:41:18.942Z,3.24
2023-01-10T21:44:20.601Z,3.25
2023-01-10T21:47:22.208Z,3.27
2023-01-10T21:50:23.928Z,3.27
2023-01-10T21:53:25.507Z,3.28
2023-01-10T21:56:27.134Z,3.28
2023-01-10T21:59:28.979Z,3.29
2023-01-10T22:02:30.610Z,3.29
2023-01-10T22:05:32.312Z,3.29
2023-01-10T22:08:34.037Z,3.28
2023-01-10T22:11:35.521Z,3.27
2023-01-10T22:14:37.209Z,3.26
2023-01-10T22:17:38.824Z,3.26
2023-01-10T22:20:43.549Z,3.26
2023-01-10T22:23:45.340Z,3.25
2023-01-10T22:26:46.915Z,3.24
2023-01-10T22:29:48.593Z,3.22
2023-01-10T22:32:55.149Z,3.21
2023-01-10T22:35:56.810Z,3.20
2023-01-10T22:38:58.297Z,3.19
2023-01-10T22:41:59.939Z,3.19
2023-01-10T22:45:01.723Z,3.17
2023-01-10T22:48:03.527Z,3.17
2023-01-10T22:51:05.079Z,3.17
2023-01-10T22:54:06.864Z,3.16
2023-01-10T22:57:08.601Z,3.16
2023-01-10T23:00:11.208Z,3.16
2023-01-10T23:03:12.716Z,3.15
2023-01-10T23:06:15.065Z,3.14
2023-01-10T23:09:16.869Z,3.13
2023-01-10T23:12:18.829Z,3.12
2023-01-10T23:15:20.685Z,3.12
2023-01-10T23:18:22.291Z,3.11
2023-01-10T23:21:24.862Z,3.12
2023-01-10T23:24:26.649Z,3.11
2023-01-10T23:27:28.265Z,3.11
2023-01-10T23:30:29.877Z,3.11
2023-01-10T23:33:31.918Z,3.12
2023-01-10T23:36:33.514Z,3.12
2023-01-10T23:39:35.043Z,3.11
2023-01-10T23:42:36.550Z,3.11
2023-01-10T23:45:38.319Z,3.12
2023-01-10T23:48:39.781Z,3.12
2023-01-10T23:51:41.340Z,3.13
2023-01-10T23:54:42.887Z,3.12
2023-01-10T23:57:44.692Z,3.13
